createdAt,value
2017-11-13T00:01:12.302Z,5.80
2017-11-13T00:03:39.755Z,5.80
2017-11-13T00:06:07.249Z,5.80
2017-11-13T00:08:35.478Z,5.80
2017-11-13T00:11:02.955Z,5.80
2017-11-13T00:13:30.434Z,5.90
2017-11-13T00:15:58.713Z,5.90
2017-11-13T00:18:26.939Z,6.00
2017-11-13T00:20:54.415Z,6.00
2017-11-13T00:23:21.887Z,6.00
2017-11-13T00:25:49.350Z,6.00
2017-11-13T00:28:16.843Z,6.00
2017-11-13T00:30:44.298Z,6.00
2017-11-13T00:33:11.791Z,5.90
2017-11-13T00:35:39.250Z,5.80
2017-11-13T00:38:06.703Z,5.80
2017-11-13T00:40:34.191Z,5.80
2017-11-13T00:43:01.660Z,5.80
2017-11-13T00:45:29.111Z,5.80
2017-11-13T00:47:56.577Z,5.80
2017-11-13T00:50:24.063Z,5.80
2017-11-13T00:52:52.230Z,5.80
2017-11-13T00:55:20.471Z,5.80
2017-11-13T00:57:47.927Z,5.80
2017-11-13T01:00:15.399Z,5.90
2017-11-13T01:02:42.843Z,5.90
2017-11-13T01:05:10.326Z,5.90
2017-11-13T01:07:38.543Z,5.90
2017-11-13T01:10:05.994Z,5.90
2017-11-13T01:12:33.472Z,5.90
2017-11-13T01:15:01.001Z,5.90
2017-11-13T01:17:28.487Z,5.90
2017-11-13T01:19:55.931Z,5.90
2017-11-13T01:22:23.375Z,6.00
2017-11-13T01:24:50.863Z,6.10
2017-11-13T01:27:18.323Z,6.20
2017-11-13T01:29:45.799Z,6.20
2017-11-13T01:32:13.255Z,6.30
2017-11-13T01:34:40.751Z,6.30
2017-11-13T01:37:08.299Z,6.40
2017-11-13T01:39:35.800Z,6.40
2017-11-13T01:42:03.491Z,6.40
2017-11-13T01:44:30.966Z,6.30
2017-11-13T01:46:58.436Z,6.30
2017-11-13T01:49:25.911Z,6.30
2017-11-13T01:51:53.378Z,6.40
2017-11-13T01:54:20.850Z,6.40
2017-11-13T01:56:48.291Z,6.50
2017-11-13T01:59:15.767Z,6.50
2017-11-13T02:01:43.214Z,6.50
2017-11-13T02:04:10.679Z,6.50
2017-11-13T02:06:38.210Z,6.60
2017-11-13T02:09:06.454Z,6.60
2017-11-13T02:11:33.903Z,6.60
2017-11-13T02:14:01.345Z,6.60
2017-11-13T02:16:28.819Z,6.70
2017-11-13T02:18:56.273Z,6.70
2017-11-13T02:21:23.727Z,6.70
2017-11-13T02:23:51.208Z,6.80
2017-11-13T02:26:18.678Z,6.80
2017-11-13T02:28:46.128Z,6.80
2017-11-13T02:31:13.610Z,6.80
2017-11-13T02:33:41.819Z,6.80
2017-11-13T02:36:09.336Z,6.80
2017-11-13T02:38:36.802Z,6.80
2017-11-13T02:41:05.014Z,6.80
2017-11-13T02:43:32.487Z,6.80
2017-11-13T02:45:59.975Z,6.90
2017-11-13T02:48:27.448Z,6.90
2017-11-13T02:50:54.921Z,7.00
2017-11-13T02:53:24.070Z,7.00
2017-11-13T02:55:51.539Z,7.00
2017-11-13T02:58:19.006Z,7.00
2017-11-13T03:00:46.459Z,7.00
2017-11-13T03:03:13.931Z,7.00
2017-11-13T03:05:41.417Z,7.00
2017-11-13T03:08:08.864Z,6.90
2017-11-13T03:10:36.352Z,6.90
2017-11-13T03:13:03.798Z,6.90
2017-11-13T03:15:31.280Z,6.80
2017-11-13T03:17:58.731Z,6.80
2017-11-13T03:20:26.219Z,6.80
2017-11-13T03:22:54.470Z,6.80
2017-11-13T03:25:21.924Z,6.70
2017-11-13T03:27:49.412Z,6.60
2017-11-13T03:30:16.916Z,6.60
2017-11-13T03:32:44.371Z,6.50
2017-11-13T03:35:11.847Z,6.50
2017-11-13T03:37:39.351Z,6.50
2017-11-13T03:40:06.807Z,6.40
2017-11-13T03:42:34.267Z,6.40
2017-11-13T03:45:01.754Z,6.30
2017-11-13T03:47:29.220Z,6.30
2017-11-13T03:49:56.675Z,6.20
2017-11-13T03:52:24.948Z,6.20
2017-11-13T03:54:52.397Z,6.30
2017-11-13T03:57:19.885Z,6.30
2017-11-13T03:59:47.332Z,6.30
2017-11-13T04:02:14.779Z,6.30
2017-11-13T04:04:42.247Z,6.30
2017-11-13T04:07:09.710Z,6.30
2017-11-13T04:09:37.167Z,6.30
2017-11-13T04:12:04.646Z,6.30
2017-11-13T04:14:32.098Z,6.30
2017-11-13T04:16:59.566Z,6.30
2017-11-13T04:19:27.054Z,6.20
2017-11-13T04:21:55.450Z,6.20
2017-11-13T04:24:22.919Z,6.10
2017-11-13T04:26:50.394Z,6.10
2017-11-13T04:29:17.852Z,6.10
2017-11-13T04:31:45.332Z,6.20
2017-11-13T04:34:12.819Z,6.20
2017-11-13T04:36:40.279Z,6.10
2017-11-13T04:39:07.733Z,6.10
2017-11-13T04:41:35.212Z,6.10
2017-11-13T04:44:02.658Z,6.10
2017-11-13T04:46:30.107Z,6.20
2017-11-13T04:48:58.339Z,6.20
2017-11-13T04:51:25.999Z,6.10
2017-11-13T04:53:53.459Z,6.10
2017-11-13T04:56:20.988Z,6.10
2017-11-13T04:58:48.472Z,6.00
2017-11-13T05:01:15.939Z,6.00
2017-11-13T05:03:43.418Z,6.00
2017-11-13T05:06:10.879Z,5.90
2017-11-13T05:08:38.356Z,5.90
2017-11-13T05:11:05.814Z,5.90
2017-11-13T05:13:33.311Z,5.80
2017-11-13T05:16:01.563Z,5.80
2017-11-13T05:18:29.029Z,5.80
2017-11-13T05:20:56.502Z,5.70
2017-11-13T05:23:23.979Z,5.70
2017-11-13T05:25:51.543Z,5.70
2017-11-13T05:28:19.007Z,5.70
2017-11-13T05:30:46.454Z,5.70
2017-11-13T05:33:14.027Z,5.70
2017-11-13T05:35:41.487Z,5.60
2017-11-13T05:38:08.947Z,5.60
2017-11-13T05:40:36.430Z,5.60
2017-11-13T05:43:03.911Z,5.60
2017-11-13T05:45:31.374Z,5.60
2017-11-13T05:47:58.840Z,5.60
2017-11-13T05:50:27.023Z,5.50
2017-11-13T05:52:54.507Z,5.60
2017-11-13T05:55:22.059Z,5.50
2017-11-13T05:57:49.507Z,5.50
2017-11-13T06:00:17.723Z,5.40
2017-11-13T06:02:45.518Z,5.40
2017-11-13T06:05:13.167Z,5.40
2017-11-13T06:07:40.699Z,5.40
2017-11-13T06:10:08.361Z,5.40
2017-11-13T06:12:36.032Z,5.30
2017-11-13T06:15:03.938Z,5.30
2017-11-13T06:17:31.710Z,5.30
2017-11-13T06:19:59.372Z,5.30
2017-11-13T06:22:27.575Z,5.30
2017-11-13T06:24:55.288Z,5.20
2017-11-13T06:27:22.774Z,5.20
2017-11-13T06:29:50.274Z,5.20
2017-11-13T06:32:17.734Z,5.20
2017-11-13T06:34:45.240Z,5.20
2017-11-13T06:37:12.936Z,5.10
2017-11-13T06:39:40.387Z,5.10
2017-11-13T06:42:08.660Z,5.10
2017-11-13T06:44:36.876Z,5.20
2017-11-13T06:47:05.204Z,5.10
2017-11-13T06:49:33.460Z,5.10
2017-11-13T06:52:00.907Z,5.10
2017-11-13T06:54:28.422Z,5.10
2017-11-13T06:56:55.916Z,5.10
2017-11-13T06:59:23.362Z,5.20
2017-11-13T07:01:50.843Z,5.20
2017-11-13T07:04:18.291Z,5.20
2017-11-13T07:06:45.748Z,5.20
2017-11-13T07:09:13.215Z,5.20
2017-11-13T07:11:40.676Z,5.20
2017-11-13T07:14:08.147Z,5.30
2017-11-13T07:16:35.603Z,5.30
2017-11-13T07:19:03.071Z,5.30
2017-11-13T07:21:30.522Z,5.30
2017-11-13T07:23:59.296Z,5.40
2017-11-13T07:26:26.777Z,5.40
2017-11-13T07:28:55.010Z,5.40
2017-11-13T07:31:22.498Z,5.40
2017-11-13T07:33:49.963Z,5.50
2017-11-13T07:36:17.449Z,5.50
2017-11-13T07:38:44.944Z,5.60
2017-11-13T07:41:12.408Z,5.60
2017-11-13T07:43:39.888Z,5.60
2017-11-13T07:46:07.367Z,5.70
2017-11-13T07:48:35.615Z,5.70
2017-11-13T07:51:03.116Z,5.70
2017-11-13T07:53:30.568Z,5.80
2017-11-13T07:55:59.698Z,5.90
2017-11-13T07:58:27.175Z,5.90
2017-11-13T08:00:54.667Z,5.90
2017-11-13T08:03:22.131Z,6.00
2017-11-13T08:05:49.584Z,6.00
2017-11-13T08:08:17.067Z,6.10
2017-11-13T08:10:44.523Z,6.10
2017-11-13T08:13:12.747Z,6.30
2017-11-13T08:15:40.270Z,6.20
2017-11-13T08:18:07.743Z,6.30
2017-11-13T08:20:35.233Z,6.40
2017-11-13T08:23:02.714Z,6.50
2017-11-13T08:25:30.182Z,6.50
2017-11-13T08:27:57.669Z,6.60
2017-11-13T08:30:25.166Z,6.60
2017-11-13T08:32:52.618Z,6.60
2017-11-13T08:35:20.098Z,6.70
2017-11-13T08:37:48.380Z,6.80
2017-11-13T08:40:15.842Z,6.70
2017-11-13T08:42:44.096Z,6.90
2017-11-13T08:45:11.606Z,6.90
2017-11-13T08:47:39.419Z,6.90
2017-11-13T08:50:06.932Z,7.00
2017-11-13T08:52:34.427Z,7.10
2017-11-13T08:55:02.299Z,7.20
2017-11-13T08:57:30.154Z,7.30
2017-11-13T08:59:57.648Z,7.40
2017-11-13T09:02:25.095Z,7.40
2017-11-13T09:04:52.561Z,7.50
2017-11-13T09:07:20.031Z,7.50
2017-11-13T09:09:47.494Z,7.50
2017-11-13T09:12:14.968Z,7.60
2017-11-13T09:14:42.444Z,7.60
2017-11-13T09:17:09.930Z,7.70
2017-11-13T09:19:37.390Z,7.70
2017-11-13T09:22:04.868Z,7.80
2017-11-13T09:24:32.343Z,7.80
2017-11-13T09:27:01.486Z,7.90
2017-11-13T09:29:28.958Z,7.90
2017-11-13T09:31:56.439Z,7.90
2017-11-13T09:34:23.878Z,8.00
2017-11-13T09:36:52.295Z,8.10
2017-11-13T09:39:20.539Z,8.20
2017-11-13T09:41:48.019Z,8.10
2017-11-13T09:44:15.480Z,8.20
2017-11-13T09:46:42.959Z,8.20
2017-11-13T09:49:10.445Z,8.30
2017-11-13T09:51:37.924Z,8.30
2017-11-13T09:54:05.374Z,8.30
2017-11-13T09:56:32.853Z,8.40
2017-11-13T09:59:01.994Z,8.50
2017-11-13T10:01:29.588Z,8.40
2017-11-13T10:03:57.036Z,8.50
2017-11-13T10:06:24.503Z,8.60
2017-11-13T10:08:51.980Z,8.60
2017-11-13T10:11:19.431Z,8.70
2017-11-13T10:13:46.922Z,8.70
2017-11-13T10:16:14.387Z,8.80
2017-11-13T10:18:41.867Z,8.80
2017-11-13T10:21:09.336Z,8.90
2017-11-13T10:23:36.789Z,8.90
2017-11-13T10:26:04.295Z,9.00
2017-11-13T10:28:31.855Z,9.00
2017-11-13T10:30:59.304Z,9.10
2017-11-13T10:33:26.831Z,9.20
2017-11-13T10:35:54.291Z,9.20
2017-11-13T10:38:21.771Z,9.30
2017-11-13T10:40:49.343Z,9.30
2017-11-13T10:43:16.786Z,9.40
2017-11-13T10:45:44.268Z,9.40
2017-11-13T10:48:11.755Z,9.50
2017-11-13T10:50:39.981Z,9.60
2017-11-13T10:53:07.465Z,9.60
2017-11-13T10:55:34.960Z,9.70
2017-11-13T10:58:02.463Z,9.70
2017-11-13T11:00:29.928Z,9.80
2017-11-13T11:02:57.457Z,9.80
2017-11-13T11:05:24.979Z,9.90
2017-11-13T11:07:53.194Z,10.00
2017-11-13T11:10:20.778Z,10.00
2017-11-13T11:12:48.330Z,10.00
2017-11-13T11:15:25.701Z,10.10
2017-11-13T11:17:58.747Z,10.10
2017-11-13T11:23:31.939Z,10.30
2017-11-13T11:26:17.083Z,10.50
2017-11-13T11:31:59.833Z,11.00
2017-11-13T11:34:43.099Z,11.10
2017-11-13T11:37:16.196Z,11.20
2017-11-13T11:39:44.414Z,11.40
2017-11-13T11:42:11.864Z,11.40
2017-11-13T11:44:43.235Z,11.50
2017-11-13T11:47:10.764Z,11.60
2017-11-13T11:49:39.636Z,11.60
2017-11-13T11:52:07.856Z,11.50
2017-11-13T11:54:54.062Z,11.50
2017-11-13T11:57:29.776Z,11.40
2017-11-13T11:59:57.261Z,11.50
2017-11-13T12:02:24.755Z,11.60
2017-11-13T12:04:52.231Z,11.60
2017-11-13T12:07:20.526Z,11.30
2017-11-13T12:09:48.035Z,11.30
2017-11-13T12:12:15.490Z,11.20
2017-11-13T12:14:42.947Z,11.10
2017-11-13T12:17:10.442Z,11.10
2017-11-13T12:19:38.669Z,10.90
2017-11-13T12:22:06.209Z,10.90
2017-11-13T12:24:34.916Z,10.90
2017-11-13T12:27:02.386Z,10.90
2017-11-13T12:29:29.862Z,11.00
2017-11-13T12:31:57.334Z,11.00
2017-11-13T12:34:25.607Z,11.10
2017-11-13T12:36:53.091Z,11.10
2017-11-13T12:39:21.317Z,11.20
2017-11-13T12:41:48.788Z,11.10
2017-11-13T12:44:17.044Z,11.10
2017-11-13T12:46:44.494Z,11.20
2017-11-13T12:49:11.963Z,11.20
2017-11-13T12:51:39.452Z,11.20
2017-11-13T12:54:07.677Z,11.60
2017-11-13T12:56:35.131Z,11.60
2017-11-13T12:59:02.608Z,11.80
2017-11-13T13:01:30.083Z,11.90
2017-11-13T13:03:57.571Z,12.00
2017-11-13T13:06:25.881Z,12.10
2017-11-13T13:08:53.337Z,12.10
2017-11-13T13:11:20.800Z,12.30
2017-11-13T13:13:48.290Z,12.40
2017-11-13T13:16:15.746Z,12.50
2017-11-13T13:18:43.194Z,12.40
2017-11-13T13:21:10.675Z,12.30
2017-11-13T13:23:38.164Z,12.10
2017-11-13T13:26:05.616Z,11.90
2017-11-13T13:28:33.871Z,11.50
2017-11-13T13:31:01.351Z,11.50
2017-11-13T13:33:28.842Z,11.50
2017-11-13T13:35:56.359Z,11.40
2017-11-13T13:38:23.816Z,11.50
2017-11-13T13:40:52.061Z,12.00
2017-11-13T13:43:19.536Z,12.00
2017-11-13T13:45:47.031Z,12.10
2017-11-13T13:48:14.500Z,12.30
2017-11-13T13:50:41.961Z,12.80
2017-11-13T13:53:09.471Z,13.60
2017-11-13T13:55:36.935Z,14.60
2017-11-13T13:58:04.401Z,15.30
2017-11-13T14:00:32.656Z,14.10
2017-11-13T14:03:00.118Z,14.10
2017-11-13T14:05:27.608Z,13.20
2017-11-13T14:07:55.092Z,12.60
2017-11-13T14:10:22.555Z,12.10
2017-11-13T14:12:50.041Z,11.90
2017-11-13T14:15:17.511Z,11.70
2017-11-13T14:17:44.995Z,11.60
2017-11-13T14:20:13.223Z,11.30
2017-11-13T14:22:40.672Z,11.30
2017-11-13T14:25:08.148Z,11.20
2017-11-13T14:27:36.547Z,11.10
2017-11-13T14:30:04.003Z,11.00
2017-11-13T14:32:31.483Z,10.90
2017-11-13T14:34:58.969Z,10.90
2017-11-13T14:37:26.424Z,10.70
2017-11-13T14:39:53.902Z,10.70
2017-11-13T14:42:21.407Z,10.60
2017-11-13T14:44:48.884Z,10.50
2017-11-13T14:47:17.114Z,10.50
2017-11-13T14:49:44.603Z,10.40
2017-11-13T14:52:12.828Z,10.40
2017-11-13T14:54:40.283Z,10.40
2017-11-13T14:57:07.822Z,10.30
2017-11-13T14:59:35.291Z,10.30
2017-11-13T15:02:02.775Z,10.20
2017-11-13T15:04:30.231Z,10.20
2017-11-13T15:06:57.694Z,10.10
2017-11-13T15:09:25.182Z,10.00
2017-11-13T15:11:52.635Z,10.00
2017-11-13T15:14:20.115Z,9.90
2017-11-13T15:16:48.331Z,9.70
2017-11-13T15:19:15.836Z,9.70
2017-11-13T15:21:43.279Z,9.70
2017-11-13T15:24:10.731Z,9.70
2017-11-13T15:26:38.231Z,9.70
2017-11-13T15:29:05.692Z,9.70
2017-11-13T15:31:33.150Z,9.60
2017-11-13T15:34:00.640Z,9.60
2017-11-13T15:36:28.094Z,9.50
2017-11-13T15:38:55.550Z,9.50
2017-11-13T15:41:23.035Z,9.40
2017-11-13T15:43:50.512Z,9.30
2017-11-13T15:46:18.020Z,9.30
2017-11-13T15:48:46.234Z,9.20
2017-11-13T15:51:13.695Z,9.20
2017-11-13T15:53:41.199Z,9.20
2017-11-13T15:56:08.651Z,9.20
2017-11-13T15:58:36.098Z,9.20
2017-11-13T16:01:04.351Z,9.20
2017-11-13T16:03:31.805Z,9.20
2017-11-13T16:05:59.285Z,9.20
2017-11-13T16:08:27.530Z,9.30
2017-11-13T16:10:54.994Z,9.30
2017-11-13T16:13:22.466Z,9.30
2017-11-13T16:15:49.910Z,9.30
2017-11-13T16:18:17.402Z,9.30
2017-11-13T16:20:45.618Z,9.30
2017-11-13T16:23:13.164Z,9.30
2017-11-13T16:25:40.646Z,9.30
2017-11-13T16:28:09.627Z,9.30
2017-11-13T16:30:37.105Z,9.30
2017-11-13T16:33:04.591Z,9.30
2017-11-13T16:35:32.044Z,9.30
2017-11-13T16:37:59.502Z,9.20
2017-11-13T16:40:27.124Z,9.20
2017-11-13T16:42:54.625Z,9.20
2017-11-13T16:45:22.845Z,9.00
2017-11-13T16:47:50.304Z,9.00
2017-11-13T16:50:17.779Z,9.00
2017-11-13T16:52:45.239Z,8.90
2017-11-13T16:55:12.743Z,8.90
2017-11-13T16:57:40.994Z,8.80
2017-11-13T17:00:08.486Z,8.80
2017-11-13T17:02:35.980Z,8.80
2017-11-13T17:05:03.462Z,8.70
2017-11-13T17:07:30.919Z,8.70
2017-11-13T17:09:58.395Z,8.70
2017-11-13T17:12:25.855Z,8.70
2017-11-13T17:14:53.342Z,8.70
2017-11-13T17:17:20.906Z,8.70
2017-11-13T17:19:48.363Z,8.60
2017-11-13T17:22:15.838Z,8.60
2017-11-13T17:24:43.318Z,8.60
2017-11-13T17:27:10.795Z,8.60
2017-11-13T17:29:38.321Z,8.60
2017-11-13T17:32:05.802Z,8.60
2017-11-13T17:34:33.282Z,8.60
2017-11-13T17:37:00.767Z,8.60
2017-11-13T17:39:29.006Z,8.60
2017-11-13T17:41:56.492Z,8.50
2017-11-13T17:44:24.746Z,8.50
2017-11-13T17:46:52.232Z,8.50
2017-11-13T17:49:19.707Z,8.50
2017-11-13T17:51:47.196Z,8.40
2017-11-13T17:54:14.652Z,8.40
2017-11-13T17:56:42.094Z,8.40
2017-11-13T17:59:10.518Z,8.30
2017-11-13T18:01:37.975Z,8.30
2017-11-13T18:04:05.483Z,8.30
2017-11-13T18:06:32.951Z,8.30
2017-11-13T18:09:00.418Z,8.30
2017-11-13T18:11:27.894Z,8.30
2017-11-13T18:13:55.349Z,8.20
2017-11-13T18:16:22.903Z,8.20
2017-11-13T18:18:50.351Z,8.10
2017-11-13T18:21:17.819Z,8.10
2017-11-13T18:23:45.312Z,8.10
2017-11-13T18:26:12.764Z,8.00
2017-11-13T18:28:41.175Z,8.00
2017-11-13T18:31:09.282Z,7.90
2017-11-13T18:33:36.918Z,7.90
2017-11-13T18:36:05.436Z,7.80
2017-11-13T18:38:33.182Z,7.80
2017-11-13T18:41:00.676Z,7.80
2017-11-13T18:43:28.236Z,7.80
2017-11-13T18:45:55.713Z,7.70
2017-11-13T18:48:23.416Z,7.70
2017-11-13T18:50:50.973Z,7.70
2017-11-13T18:53:18.430Z,7.70
2017-11-13T18:55:45.886Z,7.60
2017-11-13T18:58:13.367Z,7.60
2017-11-13T19:00:41.751Z,7.50
2017-11-13T19:03:09.205Z,7.50
2017-11-13T19:05:36.679Z,7.40
2017-11-13T19:08:04.131Z,7.40
2017-11-13T19:10:31.609Z,7.40
2017-11-13T19:12:59.063Z,7.30
2017-11-13T19:15:26.543Z,7.30
2017-11-13T19:17:54.804Z,7.30
2017-11-13T19:20:22.251Z,7.20
2017-11-13T19:22:49.743Z,7.20
2017-11-13T19:25:17.954Z,7.20
2017-11-13T19:27:45.411Z,7.20
2017-11-13T19:30:12.887Z,7.20
2017-11-13T19:32:40.375Z,7.10
2017-11-13T19:35:07.841Z,7.20
2017-11-13T19:37:35.311Z,7.20
2017-11-13T19:40:03.551Z,7.10
2017-11-13T19:42:31.145Z,7.10
2017-11-13T19:44:58.728Z,7.00
2017-11-13T19:47:26.239Z,7.00
2017-11-13T19:49:53.739Z,6.90
2017-11-13T19:52:21.553Z,6.90
2017-11-13T19:54:49.198Z,6.90
2017-11-13T19:57:16.770Z,6.80
2017-11-13T19:59:44.259Z,6.80
2017-11-13T20:02:12.058Z,6.80
2017-11-13T20:04:40.081Z,6.70
2017-11-13T20:07:07.699Z,6.70
2017-11-13T20:09:35.269Z,6.70
2017-11-13T20:12:02.796Z,6.70
2017-11-13T20:14:31.034Z,6.60
2017-11-13T20:16:59.226Z,6.60
2017-11-13T20:19:26.756Z,6.60
2017-11-13T20:21:54.301Z,6.60
2017-11-13T20:24:22.270Z,6.60
2017-11-13T20:26:50.876Z,6.50
2017-11-13T20:29:18.419Z,6.50
2017-11-13T20:31:46.156Z,6.50
2017-11-13T20:34:13.662Z,6.50
2017-11-13T20:36:41.146Z,6.50
2017-11-13T20:39:08.615Z,6.50
2017-11-13T20:41:36.078Z,6.40
2017-11-13T20:44:03.964Z,6.40
2017-11-13T20:46:31.423Z,6.40
2017-11-13T20:48:59.837Z,6.30
2017-11-13T20:51:27.380Z,6.30
2017-11-13T20:53:54.918Z,6.30
2017-11-13T20:56:22.397Z,6.30
2017-11-13T20:58:49.860Z,6.30
2017-11-13T21:01:17.356Z,6.30
2017-11-13T21:03:45.114Z,6.20
2017-11-13T21:06:12.612Z,6.20
2017-11-13T21:08:40.101Z,6.10
2017-11-13T21:11:07.986Z,6.10
2017-11-13T21:13:35.466Z,6.10
2017-11-13T21:16:02.917Z,6.10
2017-11-13T21:18:30.392Z,6.00
2017-11-13T21:20:58.621Z,6.00
2017-11-13T21:23:26.288Z,6.00
2017-11-13T21:25:53.759Z,5.90
2017-11-13T21:28:21.255Z,5.90
2017-11-13T21:30:48.743Z,5.90
2017-11-13T21:33:16.206Z,5.80
2017-11-13T21:35:45.316Z,5.80
2017-11-13T21:38:12.787Z,5.80
2017-11-13T21:40:40.238Z,5.70
2017-11-13T21:43:07.707Z,5.70
2017-11-13T21:45:35.188Z,5.70
2017-11-13T21:48:02.655Z,5.60
2017-11-13T21:50:30.127Z,5.60
2017-11-13T21:52:58.355Z,5.60
2017-11-13T21:55:25.834Z,5.60
2017-11-13T21:57:53.291Z,5.60
2017-11-13T22:00:20.763Z,5.50
2017-11-13T22:02:48.219Z,5.50
2017-11-13T22:05:15.710Z,5.50
2017-11-13T22:07:43.183Z,5.50
2017-11-13T22:10:10.626Z,5.50
2017-11-13T22:12:38.120Z,5.50
2017-11-13T22:15:05.583Z,5.40
2017-11-13T22:17:33.039Z,5.40
2017-11-13T22:20:00.507Z,5.40
2017-11-13T22:22:27.974Z,5.40
2017-11-13T22:24:55.435Z,5.30
2017-11-13T22:27:22.899Z,5.30
2017-11-13T22:29:51.167Z,5.20
2017-11-13T22:32:18.618Z,5.20
2017-11-13T22:34:46.073Z,5.20
2017-11-13T22:37:13.552Z,5.20
2017-11-13T22:39:41.038Z,5.20
2017-11-13T22:42:08.504Z,5.20
2017-11-13T22:44:35.963Z,5.10
2017-11-13T22:47:03.443Z,5.10
2017-11-13T22:49:30.919Z,5.10
2017-11-13T22:51:58.406Z,5.10
2017-11-13T22:54:25.875Z,5.10
2017-11-13T22:56:54.167Z,5.10
2017-11-13T22:59:21.622Z,5.10
2017-11-13T23:01:49.106Z,5.10
2017-11-13T23:04:16.582Z,5.10
2017-11-13T23:06:44.068Z,5.10
2017-11-13T23:09:11.582Z,5.00
2017-11-13T23:11:39.074Z,5.00
2017-11-13T23:14:06.548Z,5.00
2017-11-13T23:16:34.773Z,5.00
2017-11-13T23:19:02.235Z,5.00
2017-11-13T23:21:29.715Z,5.00
2017-11-13T23:23:57.198Z,5.00
2017-11-13T23:26:24.658Z,4.90
2017-11-13T23:28:52.111Z,4.90
2017-11-13T23:31:20.364Z,4.90
2017-11-13T23:33:47.842Z,4.90
2017-11-13T23:36:15.306Z,4.90
2017-11-13T23:38:42.814Z,4.80
2017-11-13T23:41:10.270Z,4.80
2017-11-13T23:43:37.727Z,4.80
2017-11-13T23:46:05.214Z,4.80
2017-11-13T23:48:32.687Z,4.80
2017-11-13T23:51:00.142Z,4.80
2017-11-13T23:53:27.666Z,4.80
2017-11-13T23:55:55.180Z,4.70
2017-11-13T23:58:23.447Z,4.70
